sensor_id;sensor_type;location;lat;lon;timestamp;temperature;humidity
9446;DHT22;4761;49.490;10.908;2023-04-25T00:01:35;19.00;48.50
9446;DHT22;4761;49.490;10.908;2023-04-25T00:04:02;19.00;48.50
9446;DHT22;4761;49.490;10.908;2023-04-25T00:06:28;18.90;48.60
9446;DHT22;4761;49.490;10.908;2023-04-25T00:08:55;18.90;48.60
9446;DHT22;4761;49.490;10.908;2023-04-25T00:11:22;18.90;48.60
9446;DHT22;4761;49.490;10.908;2023-04-25T00:13:47;18.90;48.60
9446;DHT22;4761;49.490;10.908;2023-04-25T00:16:14;18.90;48.60
9446;DHT22;4761;49.490;10.908;2023-04-25T00:18:41;19.00;48.70
9446;DHT22;4761;49.490;10.908;2023-04-25T00:21:07;19.00;48.80
9446;DHT22;4761;49.490;10.908;2023-04-25T00:23:33;18.90;48.70
9446;DHT22;4761;49.490;10.908;2023-04-25T00:26:00;18.90;48.70
9446;DHT22;4761;49.490;10.908;2023-04-25T00:28:26;18.90;48.70
9446;DHT22;4761;49.490;10.908;2023-04-25T00:30:52;18.90;48.70
9446;DHT22;4761;49.490;10.908;2023-04-25T00:33:17;18.90;48.70
9446;DHT22;4761;49.490;10.908;2023-04-25T00:35:43;18.90;48.60
9446;DHT22;4761;49.490;10.908;2023-04-25T00:38:08;18.90;48.60
9446;DHT22;4761;49.490;10.908;2023-04-25T00:40:34;18.90;48.60
9446;DHT22;4761;49.490;10.908;2023-04-25T00:43:00;18.90;48.60
9446;DHT22;4761;49.490;10.908;2023-04-25T00:45:28;18.90;48.70
9446;DHT22;4761;49.490;10.908;2023-04-25T00:47:54;18.90;48.70
9446;DHT22;4761;49.490;10.908;2023-04-25T00:50:20;18.90;48.70
9446;DHT22;4761;49.490;10.908;2023-04-25T00:52:46;18.90;48.70
9446;DHT22;4761;49.490;10.908;2023-04-25T00:55:12;18.90;48.70
9446;DHT22;4761;49.490;10.908;2023-04-25T00:57:38;19.00;48.70
9446;DHT22;4761;49.490;10.908;2023-04-25T01:00:05;18.90;48.60
9446;DHT22;4761;49.490;10.908;2023-04-25T01:02:33;18.90;48.60
9446;DHT22;4761;49.490;10.908;2023-04-25T01:04:59;18.90;48.60
9446;DHT22;4761;49.490;10.908;2023-04-25T01:07:25;18.90;48.50
9446;DHT22;4761;49.490;10.908;2023-04-25T01:09:54;19.00;48.60
9446;DHT22;4761;49.490;10.908;2023-04-25T01:12:19;18.90;48.40
9446;DHT22;4761;49.490;10.908;2023-04-25T01:14:46;18.90;48.40
9446;DHT22;4761;49.490;10.908;2023-04-25T01:17:12;18.90;48.40
9446;DHT22;4761;49.490;10.908;2023-04-25T01:19:38;18.90;48.40
9446;DHT22;4761;49.490;10.908;2023-04-25T01:22:04;18.90;48.40
9446;DHT22;4761;49.490;10.908;2023-04-25T01:24:32;18.90;48.50
9446;DHT22;4761;49.490;10.908;2023-04-25T01:26:58;18.90;48.50
9446;DHT22;4761;49.490;10.908;2023-04-25T01:29:26;18.90;48.40
9446;DHT22;4761;49.490;10.908;2023-04-25T01:31:52;18.90;48.40
9446;DHT22;4761;49.490;10.908;2023-04-25T01:34:18;18.90;48.40
9446;DHT22;4761;49.490;10.908;2023-04-25T01:36:43;18.90;48.30
9446;DHT22;4761;49.490;10.908;2023-04-25T01:39:09;18.90;48.40
9446;DHT22;4761;49.490;10.908;2023-04-25T01:41:35;18.90;48.40
9446;DHT22;4761;49.490;10.908;2023-04-25T01:44:01;18.90;48.40
9446;DHT22;4761;49.490;10.908;2023-04-25T01:46:27;19.00;48.40
9446;DHT22;4761;49.490;10.908;2023-04-25T01:48:53;19.00;48.30
9446;DHT22;4761;49.490;10.908;2023-04-25T01:51:18;19.00;48.30
9446;DHT22;4761;49.490;10.908;2023-04-25T01:53:44;19.00;48.20
9446;DHT22;4761;49.490;10.908;2023-04-25T01:56:09;19.00;48.10
9446;DHT22;4761;49.490;10.908;2023-04-25T01:58:35;19.00;48.00
9446;DHT22;4761;49.490;10.908;2023-04-25T02:01:01;19.10;48.10
9446;DHT22;4761;49.490;10.908;2023-04-25T02:03:26;19.00;48.00
9446;DHT22;4761;49.490;10.908;2023-04-25T02:05:52;19.00;48.00
9446;DHT22;4761;49.490;10.908;2023-04-25T02:08:17;19.10;48.10
9446;DHT22;4761;49.490;10.908;2023-04-25T02:10:43;19.00;48.00
9446;DHT22;4761;49.490;10.908;2023-04-25T02:13:09;19.00;48.00
9446;DHT22;4761;49.490;10.908;2023-04-25T02:15:35;19.00;47.90
9446;DHT22;4761;49.490;10.908;2023-04-25T02:18:01;19.00;48.00
9446;DHT22;4761;49.490;10.908;2023-04-25T02:20:28;19.00;48.00
9446;DHT22;4761;49.490;10.908;2023-04-25T02:22:54;19.00;48.00
9446;DHT22;4761;49.490;10.908;2023-04-25T02:25:19;18.90;48.00
9446;DHT22;4761;49.490;10.908;2023-04-25T02:27:46;19.00;48.00
9446;DHT22;4761;49.490;10.908;2023-04-25T02:30:12;19.00;48.00
9446;DHT22;4761;49.490;10.908;2023-04-25T02:32:39;19.00;48.00
9446;DHT22;4761;49.490;10.908;2023-04-25T02:35:05;19.00;48.00
9446;DHT22;4761;49.490;10.908;2023-04-25T02:37:34;19.00;48.00
9446;DHT22;4761;49.490;10.908;2023-04-25T02:40:00;18.90;48.00
9446;DHT22;4761;49.490;10.908;2023-04-25T02:42:26;18.90;48.00
9446;DHT22;4761;49.490;10.908;2023-04-25T02:44:52;18.90;48.00
9446;DHT22;4761;49.490;10.908;2023-04-25T02:47:18;18.90;47.90
9446;DHT22;4761;49.490;10.908;2023-04-25T02:49:43;18.90;47.80
9446;DHT22;4761;49.490;10.908;2023-04-25T02:52:09;18.90;47.80
9446;DHT22;4761;49.490;10.908;2023-04-25T02:54:34;18.90;47.90
9446;DHT22;4761;49.490;10.908;2023-04-25T02:57:00;18.90;47.90
9446;DHT22;4761;49.490;10.908;2023-04-25T02:59:27;18.90;47.80
9446;DHT22;4761;49.490;10.908;2023-04-25T03:01:53;18.90;47.80
9446;DHT22;4761;49.490;10.908;2023-04-25T03:04:18;18.90;47.80
9446;DHT22;4761;49.490;10.908;2023-04-25T03:06:44;18.90;47.80
9446;DHT22;4761;49.490;10.908;2023-04-25T03:09:10;18.90;47.80
9446;DHT22;4761;49.490;10.908;2023-04-25T03:11:38;18.90;47.90
9446;DHT22;4761;49.490;10.908;2023-04-25T03:14:04;18.90;47.90
9446;DHT22;4761;49.490;10.908;2023-04-25T03:16:29;18.90;47.90
9446;DHT22;4761;49.490;10.908;2023-04-25T03:18:56;18.90;47.90
9446;DHT22;4761;49.490;10.908;2023-04-25T03:21:22;18.90;47.90
9446;DHT22;4761;49.490;10.908;2023-04-25T03:23:48;18.90;47.90
9446;DHT22;4761;49.490;10.908;2023-04-25T03:26:13;18.90;47.90
9446;DHT22;4761;49.490;10.908;2023-04-25T03:28:39;18.90;47.90
9446;DHT22;4761;49.490;10.908;2023-04-25T03:31:05;18.90;47.90
9446;DHT22;4761;49.490;10.908;2023-04-25T03:33:31;18.90;47.90
9446;DHT22;4761;49.490;10.908;2023-04-25T03:35:56;18.90;47.90
9446;DHT22;4761;49.490;10.908;2023-04-25T03:38:22;18.90;47.90
9446;DHT22;4761;49.490;10.908;2023-04-25T03:40:47;18.90;47.90
9446;DHT22;4761;49.490;10.908;2023-04-25T03:43:13;18.90;47.90
9446;DHT22;4761;49.490;10.908;2023-04-25T03:45:38;18.80;47.80
9446;DHT22;4761;49.490;10.908;2023-04-25T03:48:04;18.80;47.80
9446;DHT22;4761;49.490;10.908;2023-04-25T03:50:29;18.80;47.90
9446;DHT22;4761;49.490;10.908;2023-04-25T03:52:55;18.90;48.00
9446;DHT22;4761;49.490;10.908;2023-04-25T03:55:20;18.90;48.00
9446;DHT22;4761;49.490;10.908;2023-04-25T03:57:46;18.80;47.80
9446;DHT22;4761;49.490;10.908;2023-04-25T04:00:12;18.80;47.90
9446;DHT22;4761;49.490;10.908;2023-04-25T04:02:38;18.80;47.90
9446;DHT22;4761;49.490;10.908;2023-04-25T04:05:04;18.90;48.00
9446;DHT22;4761;49.490;10.908;2023-04-25T04:07:31;18.80;47.90
9446;DHT22;4761;49.490;10.908;2023-04-25T04:09:58;18.90;48.00
9446;DHT22;4761;49.490;10.908;2023-04-25T04:12:23;18.90;48.00
9446;DHT22;4761;49.490;10.908;2023-04-25T04:14:49;18.90;47.90
9446;DHT22;4761;49.490;10.908;2023-04-25T04:17:15;18.80;47.90
9446;DHT22;4761;49.490;10.908;2023-04-25T04:19:40;18.90;48.00
9446;DHT22;4761;49.490;10.908;2023-04-25T04:22:06;18.90;48.10
9446;DHT22;4761;49.490;10.908;2023-04-25T04:24:32;18.80;48.00
9446;DHT22;4761;49.490;10.908;2023-04-25T04:26:58;18.90;48.10
9446;DHT22;4761;49.490;10.908;2023-04-25T04:29:24;18.80;48.00
9446;DHT22;4761;49.490;10.908;2023-04-25T04:31:50;18.80;48.00
9446;DHT22;4761;49.490;10.908;2023-04-25T04:34:19;18.90;48.10
9446;DHT22;4761;49.490;10.908;2023-04-25T04:36:45;18.90;48.20
9446;DHT22;4761;49.490;10.908;2023-04-25T04:39:12;18.80;48.10
9446;DHT22;4761;49.490;10.908;2023-04-25T04:41:38;18.80;48.20
9446;DHT22;4761;49.490;10.908;2023-04-25T04:44:04;18.80;48.20
9446;DHT22;4761;49.490;10.908;2023-04-25T04:46:29;18.80;48.30
9446;DHT22;4761;49.490;10.908;2023-04-25T04:49:05;18.80;48.30
9446;DHT22;4761;49.490;10.908;2023-04-25T04:51:31;18.80;48.30
9446;DHT22;4761;49.490;10.908;2023-04-25T04:53:57;18.80;48.20
9446;DHT22;4761;49.490;10.908;2023-04-25T04:56:24;18.80;48.30
9446;DHT22;4761;49.490;10.908;2023-04-25T04:58:50;18.80;48.30
9446;DHT22;4761;49.490;10.908;2023-04-25T05:01:16;18.80;48.30
9446;DHT22;4761;49.490;10.908;2023-04-25T05:03:42;18.80;48.30
9446;DHT22;4761;49.490;10.908;2023-04-25T05:06:07;18.80;48.30
9446;DHT22;4761;49.490;10.908;2023-04-25T05:08:34;18.80;48.30
9446;DHT22;4761;49.490;10.908;2023-04-25T05:10:59;18.80;48.30
9446;DHT22;4761;49.490;10.908;2023-04-25T05:13:25;18.80;48.30
9446;DHT22;4761;49.490;10.908;2023-04-25T05:15:50;18.80;48.30
9446;DHT22;4761;49.490;10.908;2023-04-25T05:18:16;18.80;48.30
9446;DHT22;4761;49.490;10.908;2023-04-25T05:20:41;18.80;48.30
9446;DHT22;4761;49.490;10.908;2023-04-25T05:23:07;18.80;48.30
9446;DHT22;4761;49.490;10.908;2023-04-25T05:25:33;18.80;48.30
9446;DHT22;4761;49.490;10.908;2023-04-25T05:27:58;18.90;48.40
9446;DHT22;4761;49.490;10.908;2023-04-25T05:30:24;18.80;48.40
9446;DHT22;4761;49.490;10.908;2023-04-25T05:32:50;18.80;48.90
9446;DHT22;4761;49.490;10.908;2023-04-25T05:35:15;18.80;48.40
9446;DHT22;4761;49.490;10.908;2023-04-25T05:37:41;18.80;48.40
9446;DHT22;4761;49.490;10.908;2023-04-25T05:40:08;18.80;48.30
9446;DHT22;4761;49.490;10.908;2023-04-25T05:42:34;18.80;48.30
9446;DHT22;4761;49.490;10.908;2023-04-25T05:44:59;18.80;48.30
9446;DHT22;4761;49.490;10.908;2023-04-25T05:47:26;18.80;48.30
9446;DHT22;4761;49.490;10.908;2023-04-25T05:49:51;18.90;48.40
9446;DHT22;4761;49.490;10.908;2023-04-25T05:52:17;18.90;48.40
9446;DHT22;4761;49.490;10.908;2023-04-25T05:54:42;18.90;48.40
9446;DHT22;4761;49.490;10.908;2023-04-25T05:57:08;18.80;48.40
9446;DHT22;4761;49.490;10.908;2023-04-25T05:59:33;18.90;48.50
9446;DHT22;4761;49.490;10.908;2023-04-25T06:01:59;18.80;48.50
9446;DHT22;4761;49.490;10.908;2023-04-25T06:04:26;18.80;48.50
9446;DHT22;4761;49.490;10.908;2023-04-25T06:06:51;18.80;48.50
9446;DHT22;4761;49.490;10.908;2023-04-25T06:09:17;18.80;48.60
9446;DHT22;4761;49.490;10.908;2023-04-25T06:11:42;18.90;48.60
9446;DHT22;4761;49.490;10.908;2023-04-25T06:14:08;18.90;48.70
9446;DHT22;4761;49.490;10.908;2023-04-25T06:16:33;18.80;48.60
9446;DHT22;4761;49.490;10.908;2023-04-25T06:18:59;18.90;48.80
9446;DHT22;4761;49.490;10.908;2023-04-25T06:21:24;18.80;48.70
9446;DHT22;4761;49.490;10.908;2023-04-25T06:23:50;18.80;48.80
9446;DHT22;4761;49.490;10.908;2023-04-25T06:26:16;18.80;48.80
9446;DHT22;4761;49.490;10.908;2023-04-25T06:28:41;18.80;48.80
9446;DHT22;4761;49.490;10.908;2023-04-25T06:31:07;18.80;48.90
9446;DHT22;4761;49.490;10.908;2023-04-25T06:33:32;18.80;48.90
9446;DHT22;4761;49.490;10.908;2023-04-25T06:35:58;18.80;48.90
9446;DHT22;4761;49.490;10.908;2023-04-25T06:38:23;18.80;49.00
9446;DHT22;4761;49.490;10.908;2023-04-25T06:40:49;18.80;49.10
9446;DHT22;4761;49.490;10.908;2023-04-25T06:43:14;18.80;49.10
9446;DHT22;4761;49.490;10.908;2023-04-25T06:45:40;18.80;49.10
9446;DHT22;4761;49.490;10.908;2023-04-25T06:48:06;18.80;49.00
9446;DHT22;4761;49.490;10.908;2023-04-25T06:50:31;18.80;49.00
9446;DHT22;4761;49.490;10.908;2023-04-25T06:52:57;18.90;49.10
9446;DHT22;4761;49.490;10.908;2023-04-25T06:55:22;18.90;49.00
9446;DHT22;4761;49.490;10.908;2023-04-25T06:57:48;18.90;48.90
9446;DHT22;4761;49.490;10.908;2023-04-25T07:00:14;18.90;48.90
9446;DHT22;4761;49.490;10.908;2023-04-25T07:02:39;18.90;48.90
9446;DHT22;4761;49.490;10.908;2023-04-25T07:05:05;18.90;49.00
9446;DHT22;4761;49.490;10.908;2023-04-25T07:07:31;18.90;49.00
9446;DHT22;4761;49.490;10.908;2023-04-25T07:09:57;18.90;49.10
9446;DHT22;4761;49.490;10.908;2023-04-25T07:12:22;18.90;49.00
9446;DHT22;4761;49.490;10.908;2023-04-25T07:14:48;18.90;49.00
9446;DHT22;4761;49.490;10.908;2023-04-25T07:17:13;18.90;49.00
9446;DHT22;4761;49.490;10.908;2023-04-25T07:19:39;18.90;49.00
9446;DHT22;4761;49.490;10.908;2023-04-25T07:22:05;18.90;49.10
9446;DHT22;4761;49.490;10.908;2023-04-25T07:24:31;18.80;49.10
9446;DHT22;4761;49.490;10.908;2023-04-25T07:26:57;18.80;49.10
9446;DHT22;4761;49.490;10.908;2023-04-25T07:29:23;18.80;49.10
9446;DHT22;4761;49.490;10.908;2023-04-25T07:31:49;18.80;49.20
9446;DHT22;4761;49.490;10.908;2023-04-25T07:34:14;18.80;49.20
9446;DHT22;4761;49.490;10.908;2023-04-25T07:36:41;18.80;49.20
9446;DHT22;4761;49.490;10.908;2023-04-25T07:39:06;18.80;49.20
9446;DHT22;4761;49.490;10.908;2023-04-25T07:41:34;18.90;49.20
9446;DHT22;4761;49.490;10.908;2023-04-25T07:44:00;18.80;49.10
9446;DHT22;4761;49.490;10.908;2023-04-25T07:46:25;18.80;49.20
9446;DHT22;4761;49.490;10.908;2023-04-25T07:48:51;18.80;49.20
9446;DHT22;4761;49.490;10.908;2023-04-25T07:51:17;18.80;49.40
9446;DHT22;4761;49.490;10.908;2023-04-25T07:53:45;18.80;49.30
9446;DHT22;4761;49.490;10.908;2023-04-25T07:56:10;18.80;49.30
9446;DHT22;4761;49.490;10.908;2023-04-25T07:58:36;18.80;49.40
9446;DHT22;4761;49.490;10.908;2023-04-25T08:01:01;18.80;49.40
9446;DHT22;4761;49.490;10.908;2023-04-25T08:03:27;18.80;49.50
9446;DHT22;4761;49.490;10.908;2023-04-25T08:05:52;18.80;49.50
9446;DHT22;4761;49.490;10.908;2023-04-25T08:08:18;18.70;49.40
9446;DHT22;4761;49.490;10.908;2023-04-25T08:10:43;18.80;49.50
9446;DHT22;4761;49.490;10.908;2023-04-25T08:13:09;18.80;49.50
9446;DHT22;4761;49.490;10.908;2023-04-25T08:15:35;18.80;49.50
9446;DHT22;4761;49.490;10.908;2023-04-25T08:18:00;18.70;49.60
9446;DHT22;4761;49.490;10.908;2023-04-25T08:20:26;18.70;50.00
9446;DHT22;4761;49.490;10.908;2023-04-25T08:22:51;18.70;49.60
9446;DHT22;4761;49.490;10.908;2023-04-25T08:25:17;18.70;49.60
9446;DHT22;4761;49.490;10.908;2023-04-25T08:27:43;18.70;49.60
9446;DHT22;4761;49.490;10.908;2023-04-25T08:30:08;18.70;49.70
9446;DHT22;4761;49.490;10.908;2023-04-25T08:32:34;18.70;49.70
9446;DHT22;4761;49.490;10.908;2023-04-25T08:34:59;18.70;49.70
9446;DHT22;4761;49.490;10.908;2023-04-25T08:37:25;18.70;49.70
9446;DHT22;4761;49.490;10.908;2023-04-25T08:39:51;18.70;49.70
9446;DHT22;4761;49.490;10.908;2023-04-25T08:42:19;18.70;49.70
9446;DHT22;4761;49.490;10.908;2023-04-25T08:44:48;18.70;49.70
9446;DHT22;4761;49.490;10.908;2023-04-25T08:47:13;18.70;49.70
9446;DHT22;4761;49.490;10.908;2023-04-25T08:49:40;18.70;49.60
9446;DHT22;4761;49.490;10.908;2023-04-25T08:52:09;18.80;49.70
9446;DHT22;4761;49.490;10.908;2023-04-25T08:54:36;18.70;49.60
9446;DHT22;4761;49.490;10.908;2023-04-25T08:57:03;18.80;49.70
9446;DHT22;4761;49.490;10.908;2023-04-25T08:59:30;18.80;49.60
9446;DHT22;4761;49.490;10.908;2023-04-25T09:01:57;18.80;49.60
9446;DHT22;4761;49.490;10.908;2023-04-25T09:04:23;18.80;49.60
9446;DHT22;4761;49.490;10.908;2023-04-25T09:06:48;18.80;49.70
9446;DHT22;4761;49.490;10.908;2023-04-25T09:09:14;18.80;49.70
9446;DHT22;4761;49.490;10.908;2023-04-25T09:11:40;18.80;49.80
9446;DHT22;4761;49.490;10.908;2023-04-25T09:14:15;18.80;49.80
9446;DHT22;4761;49.490;10.908;2023-04-25T09:19:23;18.80;50.10
9446;DHT22;4761;49.490;10.908;2023-04-25T09:21:50;18.80;50.10
9446;DHT22;4761;49.490;10.908;2023-04-25T09:24:18;18.80;50.20
9446;DHT22;4761;49.490;10.908;2023-04-25T09:26:44;18.80;50.40
9446;DHT22;4761;49.490;10.908;2023-04-25T09:29:10;18.80;50.40
9446;DHT22;4761;49.490;10.908;2023-04-25T09:31:36;18.80;50.40
9446;DHT22;4761;49.490;10.908;2023-04-25T09:34:02;18.80;50.30
9446;DHT22;4761;49.490;10.908;2023-04-25T09:36:29;18.80;50.40
9446;DHT22;4761;49.490;10.908;2023-04-25T09:38:55;18.80;50.40
9446;DHT22;4761;49.490;10.908;2023-04-25T09:41:24;18.90;50.50
9446;DHT22;4761;49.490;10.908;2023-04-25T09:43:50;18.90;50.40
9446;DHT22;4761;49.490;10.908;2023-04-25T09:46:16;18.90;50.50
9446;DHT22;4761;49.490;10.908;2023-04-25T09:48:49;18.90;50.80
9446;DHT22;4761;49.490;10.908;2023-04-25T09:51:15;18.90;50.60
9446;DHT22;4761;49.490;10.908;2023-04-25T09:53:45;18.90;50.50
9446;DHT22;4761;49.490;10.908;2023-04-25T09:56:15;18.90;50.40
9446;DHT22;4761;49.490;10.908;2023-04-25T09:58:41;18.90;50.60
9446;DHT22;4761;49.490;10.908;2023-04-25T10:01:09;18.90;50.50
9446;DHT22;4761;49.490;10.908;2023-04-25T10:03:36;18.90;50.50
9446;DHT22;4761;49.490;10.908;2023-04-25T10:06:04;18.90;50.40
9446;DHT22;4761;49.490;10.908;2023-04-25T10:08:33;18.90;50.50
9446;DHT22;4761;49.490;10.908;2023-04-25T10:11:01;18.90;50.60
9446;DHT22;4761;49.490;10.908;2023-04-25T10:13:29;18.90;50.50
9446;DHT22;4761;49.490;10.908;2023-04-25T10:15:56;18.90;50.50
9446;DHT22;4761;49.490;10.908;2023-04-25T10:18:24;19.00;50.70
9446;DHT22;4761;49.490;10.908;2023-04-25T10:20:50;18.90;50.40
9446;DHT22;4761;49.490;10.908;2023-04-25T10:23:16;18.90;50.30
9446;DHT22;4761;49.490;10.908;2023-04-25T10:25:42;18.90;50.30
9446;DHT22;4761;49.490;10.908;2023-04-25T10:28:08;18.90;50.30
9446;DHT22;4761;49.490;10.908;2023-04-25T10:30:34;18.90;50.30
9446;DHT22;4761;49.490;10.908;2023-04-25T10:32:59;18.90;50.30
9446;DHT22;4761;49.490;10.908;2023-04-25T10:35:27;19.00;50.40
9446;DHT22;4761;49.490;10.908;2023-04-25T10:38:08;19.00;50.40
9446;DHT22;4761;49.490;10.908;2023-04-25T10:40:36;19.00;50.40
9446;DHT22;4761;49.490;10.908;2023-04-25T10:43:34;19.00;50.30
9446;DHT22;4761;49.490;10.908;2023-04-25T10:46:01;18.90;50.20
9446;DHT22;4761;49.490;10.908;2023-04-25T10:48:28;19.00;50.20
9446;DHT22;4761;49.490;10.908;2023-04-25T10:51:10;18.90;50.10
9446;DHT22;4761;49.490;10.908;2023-04-25T10:53:36;19.00;50.00
9446;DHT22;4761;49.490;10.908;2023-04-25T10:56:19;19.00;50.00
9446;DHT22;4761;49.490;10.908;2023-04-25T10:58:46;19.00;50.00
9446;DHT22;4761;49.490;10.908;2023-04-25T11:01:24;19.00;50.00
9446;DHT22;4761;49.490;10.908;2023-04-25T11:03:57;19.00;50.10
9446;DHT22;4761;49.490;10.908;2023-04-25T11:06:40;19.00;50.00
9446;DHT22;4761;49.490;10.908;2023-04-25T11:09:12;19.10;50.00
9446;DHT22;4761;49.490;10.908;2023-04-25T11:11:38;19.00;49.90
9446;DHT22;4761;49.490;10.908;2023-04-25T11:14:04;19.00;49.80
9446;DHT22;4761;49.490;10.908;2023-04-25T11:16:29;19.00;49.70
9446;DHT22;4761;49.490;10.908;2023-04-25T11:18:57;19.00;49.70
9446;DHT22;4761;49.490;10.908;2023-04-25T11:21:24;19.00;49.60
9446;DHT22;4761;49.490;10.908;2023-04-25T11:23:51;19.00;49.60
9446;DHT22;4761;49.490;10.908;2023-04-25T11:26:19;19.00;50.10
9446;DHT22;4761;49.490;10.908;2023-04-25T11:28:45;19.00;49.40
9446;DHT22;4761;49.490;10.908;2023-04-25T11:31:11;19.00;49.30
9446;DHT22;4761;49.490;10.908;2023-04-25T11:33:36;19.00;49.40
9446;DHT22;4761;49.490;10.908;2023-04-25T11:36:02;19.00;49.40
9446;DHT22;4761;49.490;10.908;2023-04-25T11:38:28;19.00;49.40
9446;DHT22;4761;49.490;10.908;2023-04-25T11:40:54;19.00;49.40
9446;DHT22;4761;49.490;10.908;2023-04-25T11:43:21;19.00;49.50
9446;DHT22;4761;49.490;10.908;2023-04-25T11:45:48;19.00;49.50
9446;DHT22;4761;49.490;10.908;2023-04-25T11:48:14;19.10;49.60
9446;DHT22;4761;49.490;10.908;2023-04-25T11:50:40;19.10;49.50
9446;DHT22;4761;49.490;10.908;2023-04-25T11:53:05;19.10;49.30
9446;DHT22;4761;49.490;10.908;2023-04-25T11:55:31;19.20;49.30
9446;DHT22;4761;49.490;10.908;2023-04-25T11:57:59;19.10;49.10
9446;DHT22;4761;49.490;10.908;2023-04-25T12:00:26;19.20;49.10
9446;DHT22;4761;49.490;10.908;2023-04-25T12:02:53;19.20;49.10
9446;DHT22;4761;49.490;10.908;2023-04-25T12:05:23;19.20;48.90
9446;DHT22;4761;49.490;10.908;2023-04-25T12:07:48;19.20;48.90
9446;DHT22;4761;49.490;10.908;2023-04-25T12:10:15;19.20;48.80
9446;DHT22;4761;49.490;10.908;2023-04-25T12:12:42;19.20;48.80
9446;DHT22;4761;49.490;10.908;2023-04-25T12:15:13;19.20;48.70
9446;DHT22;4761;49.490;10.908;2023-04-25T12:17:41;19.20;48.80
9446;DHT22;4761;49.490;10.908;2023-04-25T12:20:18;19.20;48.70
9446;DHT22;4761;49.490;10.908;2023-04-25T12:22:47;19.20;48.80
9446;DHT22;4761;49.490;10.908;2023-04-25T12:28:18;19.20;48.80
9446;DHT22;4761;49.490;10.908;2023-04-25T12:31:05;19.20;48.90
9446;DHT22;4761;49.490;10.908;2023-04-25T12:33:35;19.20;48.80
9446;DHT22;4761;49.490;10.908;2023-04-25T12:36:03;19.10;48.70
9446;DHT22;4761;49.490;10.908;2023-04-25T12:38:36;19.10;48.80
9446;DHT22;4761;49.490;10.908;2023-04-25T12:41:03;19.20;48.70
9446;DHT22;4761;49.490;10.908;2023-04-25T12:43:28;19.10;48.60
9446;DHT22;4761;49.490;10.908;2023-04-25T12:45:55;19.10;48.50
9446;DHT22;4761;49.490;10.908;2023-04-25T12:48:21;19.10;48.50
9446;DHT22;4761;49.490;10.908;2023-04-25T12:50:48;19.10;48.50
9446;DHT22;4761;49.490;10.908;2023-04-25T12:53:22;19.10;48.50
9446;DHT22;4761;49.490;10.908;2023-04-25T12:55:48;19.10;48.50
9446;DHT22;4761;49.490;10.908;2023-04-25T12:58:14;19.10;48.50
9446;DHT22;4761;49.490;10.908;2023-04-25T13:00:40;19.10;48.50
9446;DHT22;4761;49.490;10.908;2023-04-25T13:03:06;19.10;48.50
9446;DHT22;4761;49.490;10.908;2023-04-25T13:05:31;19.10;48.40
9446;DHT22;4761;49.490;10.908;2023-04-25T13:07:57;19.10;48.30
9446;DHT22;4761;49.490;10.908;2023-04-25T13:10:23;19.10;48.30
9446;DHT22;4761;49.490;10.908;2023-04-25T13:12:48;19.10;48.30
9446;DHT22;4761;49.490;10.908;2023-04-25T13:15:14;19.10;48.20
9446;DHT22;4761;49.490;10.908;2023-04-25T13:17:41;19.10;48.20
9446;DHT22;4761;49.490;10.908;2023-04-25T13:20:07;19.10;48.10
9446;DHT22;4761;49.490;10.908;2023-04-25T13:22:38;19.10;48.10
9446;DHT22;4761;49.490;10.908;2023-04-25T13:25:05;19.10;48.10
9446;DHT22;4761;49.490;10.908;2023-04-25T13:27:31;19.10;48.20
9446;DHT22;4761;49.490;10.908;2023-04-25T13:30:02;19.10;48.10
9446;DHT22;4761;49.490;10.908;2023-04-25T13:32:35;19.10;48.10
9446;DHT22;4761;49.490;10.908;2023-04-25T13:35:03;19.10;48.00
9446;DHT22;4761;49.490;10.908;2023-04-25T13:37:29;19.10;48.10
9446;DHT22;4761;49.490;10.908;2023-04-25T13:39:55;19.00;47.90
9446;DHT22;4761;49.490;10.908;2023-04-25T13:42:22;19.10;47.90
9446;DHT22;4761;49.490;10.908;2023-04-25T13:44:48;19.00;47.90
9446;DHT22;4761;49.490;10.908;2023-04-25T13:47:13;19.00;47.90
9446;DHT22;4761;49.490;10.908;2023-04-25T13:49:39;19.00;48.40
9446;DHT22;4761;49.490;10.908;2023-04-25T13:52:05;18.90;47.40
9446;DHT22;4761;49.490;10.908;2023-04-25T13:54:30;18.90;47.30
9446;DHT22;4761;49.490;10.908;2023-04-25T13:56:56;18.90;47.10
9446;DHT22;4761;49.490;10.908;2023-04-25T13:59:24;18.90;47.10
9446;DHT22;4761;49.490;10.908;2023-04-25T14:01:51;18.90;47.10
9446;DHT22;4761;49.490;10.908;2023-04-25T14:04:16;18.90;47.00
9446;DHT22;4761;49.490;10.908;2023-04-25T14:06:42;18.90;47.80
9446;DHT22;4761;49.490;10.908;2023-04-25T14:09:08;18.90;47.50
9446;DHT22;4761;49.490;10.908;2023-04-25T14:11:38;18.90;47.50
9446;DHT22;4761;49.490;10.908;2023-04-25T14:14:04;18.90;47.50
9446;DHT22;4761;49.490;10.908;2023-04-25T14:16:30;18.90;47.60
9446;DHT22;4761;49.490;10.908;2023-04-25T14:18:57;18.90;47.60
9446;DHT22;4761;49.490;10.908;2023-04-25T14:21:23;18.90;47.70
9446;DHT22;4761;49.490;10.908;2023-04-25T14:23:49;18.90;47.70
9446;DHT22;4761;49.490;10.908;2023-04-25T14:26:14;18.90;47.70
9446;DHT22;4761;49.490;10.908;2023-04-25T14:28:40;18.90;47.70
9446;DHT22;4761;49.490;10.908;2023-04-25T14:31:05;18.90;47.70
9446;DHT22;4761;49.490;10.908;2023-04-25T14:33:31;18.90;47.80
9446;DHT22;4761;49.490;10.908;2023-04-25T14:35:57;18.90;47.80
9446;DHT22;4761;49.490;10.908;2023-04-25T14:38:22;18.90;47.80
9446;DHT22;4761;49.490;10.908;2023-04-25T14:40:50;18.90;47.80
9446;DHT22;4761;49.490;10.908;2023-04-25T14:43:16;18.90;47.80
9446;DHT22;4761;49.490;10.908;2023-04-25T14:45:41;18.90;47.70
9446;DHT22;4761;49.490;10.908;2023-04-25T14:48:07;18.90;47.70
9446;DHT22;4761;49.490;10.908;2023-04-25T14:50:33;18.90;47.70
9446;DHT22;4761;49.490;10.908;2023-04-25T14:52:58;18.90;47.70
9446;DHT22;4761;49.490;10.908;2023-04-25T14:55:26;18.90;47.70
9446;DHT22;4761;49.490;10.908;2023-04-25T14:57:53;18.90;47.70
9446;DHT22;4761;49.490;10.908;2023-04-25T15:00:19;18.90;47.70
9446;DHT22;4761;49.490;10.908;2023-04-25T15:02:46;18.90;47.60
9446;DHT22;4761;49.490;10.908;2023-04-25T15:05:12;18.90;47.50
9446;DHT22;4761;49.490;10.908;2023-04-25T15:07:39;18.90;47.50
9446;DHT22;4761;49.490;10.908;2023-04-25T15:10:06;18.90;47.50
9446;DHT22;4761;49.490;10.908;2023-04-25T15:12:36;18.90;47.50
9446;DHT22;4761;49.490;10.908;2023-04-25T15:15:03;18.90;47.50
9446;DHT22;4761;49.490;10.908;2023-04-25T15:17:28;18.90;47.50
9446;DHT22;4761;49.490;10.908;2023-04-25T15:19:56;18.90;47.50
9446;DHT22;4761;49.490;10.908;2023-04-25T15:22:22;18.90;47.60
9446;DHT22;4761;49.490;10.908;2023-04-25T15:24:47;18.90;47.60
9446;DHT22;4761;49.490;10.908;2023-04-25T15:27:13;18.90;47.70
9446;DHT22;4761;49.490;10.908;2023-04-25T15:29:39;18.90;47.80
9446;DHT22;4761;49.490;10.908;2023-04-25T15:32:05;18.90;47.80
9446;DHT22;4761;49.490;10.908;2023-04-25T15:34:31;18.90;47.90
9446;DHT22;4761;49.490;10.908;2023-04-25T15:36:57;18.90;47.80
9446;DHT22;4761;49.490;10.908;2023-04-25T15:39:23;18.90;47.90
9446;DHT22;4761;49.490;10.908;2023-04-25T15:41:48;18.90;47.90
9446;DHT22;4761;49.490;10.908;2023-04-25T15:44:14;18.90;47.90
9446;DHT22;4761;49.490;10.908;2023-04-25T15:46:39;18.90;47.90